Search for airport 
image banner adimage banner adimage banner ad
image banner ad

6PA0 - Myer

Located in Milford, United States

ICAO - 6PA0, IATA -

Data provided by Airmate  

General information

Coordinates: N41°21'0" W74°55'59"
Elevation is 1345 feet MSL.
Magnetic variation is -12° East
View others Airports in Pennsylvania

Operational data

Special qualification required
Current time UTC:
Current local time:
Weather at : KFWN - Sussex ( 31 km )
METAR: KFWN 091553Z AUTO 21008KT 10SM FEW046 14/04 A3004 RMK AO2 SLP173 T01440044
View NOTAMs / SUP AIP / TFR affecting this airport [VIEW]
Communications frequencies: [VIEW]

Runways:

RWY identifierQFULength (ft)Width (ft)SurfaceLDA (ft)
N2500200GRASS
S2500200GRASS

Airport contact information

Address: Milford United States

Satellite view of 6PA0